Wooler, United Kingdom
Current Conditions -  °F | °C
As of 6:50 PM on Sunday 23 Nov 2014 (Local Time) from EGQM Reporting Station
Clear Clear  
Wind Chill: 34°   Ceiling: Unl
Heat Index: 41°   Visibility: 6mi
Dew Point: 36°   Wind: 12mph
Humidity: 81%   Direction: 260°W
Pressure: 30"   Gusts: NA
Location:  55.55°N, 2.01°W
Report Text: EGQM 231850Z AUTO 26010KT 9999 NCD 05/02 Q1016
Loading
Personal Weather Stations






























Interactive Weather Map New forecast layout! Learn more

10-Day Weather Forecast

Advertisements
Track Severe Weather on mobile